Terminal Aerodrome Forecast
Issued by NWS

Home | Current Version | Previous Version | Text Only | Print | Product List | Glossary On
Versions: 1 2 3 4 5 6 7 8 9 10 11 12 13
069
FTUS42 KTAE 070543
TAFABY
TAF
KABY 070543Z 0706/0806 34004KT P6SM SCT200
     FM071400 31010G18KT P6SM SKC
     FM072300 30005KT P6SM SKC=

USA.gov is the U.S. government's official web portal to all federal, state and local government web resources and services.